Argonia, KS

5:46 AM CST on March 06, 2015 (GMT -0600)
NonFedAWOS HARPER KS US SUPERAWOS | Change Station
CLOSE
Current Station
Personal Weather Station
Location: Harper, KS
Elevation: 1426 ft
Nearby Weather Stations

Elev 1426 ft 37.28 °N, 98.04 °W | Updated 31 minutes ago

Clear
Clear
25 °F
Feels Like 16 °F
N
8
Wind Variable Wind from South
Gusts 0.0 mph

Today
High -- | Low -- °F
--% Chance of Precip.
Yesterday
High -- | Low -- °F
Precip. -- in
6:55 AM 6:29 PM
Full, 100% visible
Pressure 30.37 in
Visibility 10.0 miles
Clouds Clear
Windchill 16 °F
Dew Point 19 °F
Humidity 80%
Rainfall in
Snow Depth Not available.
UV 0 out of 12
Pollen .50 out of 12
Air Quality Not available.
Flu Activity Not available.
METAR KICT 061053Z 18007KT 10SM CLR M04/M08 A3037

More Conditions Fewer Conditions

Pressure 30.37 in
Visibility 10.0 miles
Clouds Clear
Windchill 16 °F
Dew Point 19 °F
Humidity 80%
Rainfall in
Snow Depth Not available.
UV 0 out of 12
Pollen .50 out of 12
Air Quality Not available.
Flu Activity Not available.
METAR KICT 061053Z 18007KT 10SM CLR M04/M08 A3037

More Conditions Fewer Conditions

10-Day Weather Forecast

Almanac

Astronomy

Mar. 06, 2015 Rise Set
Actual Time
Civil Twilight
Nautical Twilight
Astronomical Twilight
Moon
Length of Visible Light
Length of Day
Tomorrow will be .
, % of the Moon is Illuminated

Today's Extremes

State Highs State Lows

Community

WunderPhotos

Upload Photos

1,803,228 photos uploaded!

WunderBlogs® & News

Nearby

Air Quality

  Air Quality AQ Index Pollutant
Not available.

Snow Depth

Station Depth Elevation

Earthquake Activity

City Distance Mag. Time & Date
Minimum magnitude displayed is 2.5.

Coastal Water Temperatures

Place Temperature

Nearby Weather Stations